Rechercher aéroport 
image banner adimage banner adimage banner ad
image banner ad

PA95 - Turnpike Nr 1

Situé à Harrisburg, United States

ICAO - PA95, IATA -

Données fournies par Airmate  

Information générale

Coordonnées: N40°13'0" W76°46'59"
Élévation : 348 feet MSL.
Variation magnétique : -10° East
Voir autres Aéroports à Pennsylvania

Données opérationnelles

Special qualification required
Heure actuelle UTC:
Heure actuelle locale:
Météo à : KMDT - Harrisburg Intl ( 3 km )
METAR: KMDT 150656Z 30007KT 10SM BKN080 18/15 A2979 RMK AO2 SLP086 T01830150
TAF: KMDT 150537Z 1506/1606 29005KT P6SM SCT100 TEMPO 1508/1511 4SM BR FM151400 32010G20KT P6SM BKN050 FM160100 31007KT P6SM SCT040
Voir NOTAMs / SUP AIP / TFR affectant cet aéroport [VIEW]
Fréquences de communication: [VIEW]

Pistes:

Coordonnées de l'aéroport

Adresse: Harrisburg United States

Vue satellite de PA95